Anjou, Canada
Current Conditions -  °F | °C
As of 5:34 AM on Thursday 18 Dec 2014 (Local Time) from CYHU Reporting Station
Light Snow Light Snow  
Wind Chill: 27°   Ceiling: 1600
Heat Index: 32°   Visibility: 2mi
Dew Point: 30°   Wind: 5mph
Humidity: 93%   Direction: 280°W
Pressure: 29.79"   Gusts: NA
Location:  45.6°N, 73.53°W
Report Text: CYHU 181034Z AUTO 28004KT 2SM -SN OVC016 M00/M01 A2979 RMK SLP090
Loading
Personal Weather Stations






























Interactive Weather Map New forecast layout! Learn more

10-Day Weather Forecast

Advertisements
Track Severe Weather on mobile